sensor_id;sensor_type;location;lat;lon;timestamp;P1;durP1;ratioP1;P2;durP2;ratioP2
76039;SDS011;64736;50.462;4.850;2023-04-08T00:01:06;10.77;;;5.65;;
76039;SDS011;64736;50.462;4.850;2023-04-08T00:03:32;8.57;;;5.03;;
76039;SDS011;64736;50.462;4.850;2023-04-08T00:05:58;10.00;;;5.18;;
76039;SDS011;64736;50.462;4.850;2023-04-08T00:08:27;11.00;;;5.07;;
76039;SDS011;64736;50.462;4.850;2023-04-08T00:10:52;9.65;;;5.18;;
76039;SDS011;64736;50.462;4.850;2023-04-08T00:13:18;8.40;;;4.75;;
76039;SDS011;64736;50.462;4.850;2023-04-08T00:15:44;9.75;;;4.70;;
76039;SDS011;64736;50.462;4.850;2023-04-08T00:18:10;8.85;;;4.38;;
76039;SDS011;64736;50.462;4.850;2023-04-08T00:20:36;8.05;;;3.60;;
76039;SDS011;64736;50.462;4.850;2023-04-08T00:23:01;10.80;;;5.20;;
76039;SDS011;64736;50.462;4.850;2023-04-08T00:25:27;7.65;;;4.32;;
76039;SDS011;64736;50.462;4.850;2023-04-08T00:27:53;9.73;;;4.90;;
76039;SDS011;64736;50.462;4.850;2023-04-08T00:30:19;10.60;;;4.28;;
76039;SDS011;64736;50.462;4.850;2023-04-08T00:32:45;7.65;;;4.72;;
76039;SDS011;64736;50.462;4.850;2023-04-08T00:35:11;11.07;;;5.47;;
76039;SDS011;64736;50.462;4.850;2023-04-08T00:37:37;8.50;;;4.90;;
76039;SDS011;64736;50.462;4.850;2023-04-08T00:40:03;10.80;;;4.85;;
76039;SDS011;64736;50.462;4.850;2023-04-08T00:42:29;9.05;;;4.55;;
76039;SDS011;64736;50.462;4.850;2023-04-08T00:44:55;11.02;;;4.60;;
76039;SDS011;64736;50.462;4.850;2023-04-08T00:47:21;9.25;;;4.75;;
76039;SDS011;64736;50.462;4.850;2023-04-08T00:49:47;7.80;;;4.38;;
76039;SDS011;64736;50.462;4.850;2023-04-08T00:52:13;7.63;;;3.90;;
76039;SDS011;64736;50.462;4.850;2023-04-08T00:54:38;11.85;;;5.45;;
76039;SDS011;64736;50.462;4.850;2023-04-08T00:57:05;9.55;;;5.65;;
76039;SDS011;64736;50.462;4.850;2023-04-08T00:59:32;9.40;;;4.75;;
76039;SDS011;64736;50.462;4.850;2023-04-08T01:07:34;7.90;;;4.75;;
76039;SDS011;64736;50.462;4.850;2023-04-08T01:10:11;8.00;;;4.60;;
76039;SDS011;64736;50.462;4.850;2023-04-08T01:12:44;12.20;;;5.00;;
76039;SDS011;64736;50.462;4.850;2023-04-08T01:15:25;10.40;;;5.13;;
76039;SDS011;64736;50.462;4.850;2023-04-08T01:17:54;8.63;;;4.97;;
76039;SDS011;64736;50.462;4.850;2023-04-08T01:20:23;8.63;;;4.68;;
76039;SDS011;64736;50.462;4.850;2023-04-08T01:25:31;8.40;;;5.05;;
76039;SDS011;64736;50.462;4.850;2023-04-08T01:28:09;8.02;;;4.20;;
76039;SDS011;64736;50.462;4.850;2023-04-08T01:30:41;9.02;;;4.80;;
76039;SDS011;64736;50.462;4.850;2023-04-08T01:33:11;11.20;;;5.38;;
76039;SDS011;64736;50.462;4.850;2023-04-08T01:35:39;10.02;;;4.90;;
76039;SDS011;64736;50.462;4.850;2023-04-08T01:38:06;10.77;;;5.60;;
76039;SDS011;64736;50.462;4.850;2023-04-08T01:40:34;9.00;;;4.97;;
76039;SDS011;64736;50.462;4.850;2023-04-08T01:43:04;8.18;;;5.03;;
76039;SDS011;64736;50.462;4.850;2023-04-08T01:45:32;9.25;;;5.80;;
76039;SDS011;64736;50.462;4.850;2023-04-08T01:47:58;10.45;;;5.18;;
76039;SDS011;64736;50.462;4.850;2023-04-08T01:50:25;11.57;;;5.10;;
76039;SDS011;64736;50.462;4.850;2023-04-08T01:52:52;9.98;;;4.70;;
76039;SDS011;64736;50.462;4.850;2023-04-08T01:55:19;10.38;;;5.40;;
76039;SDS011;64736;50.462;4.850;2023-04-08T01:57:49;10.35;;;6.07;;
76039;SDS011;64736;50.462;4.850;2023-04-08T02:00:18;7.32;;;4.95;;
76039;SDS011;64736;50.462;4.850;2023-04-08T02:02:50;8.90;;;5.38;;
76039;SDS011;64736;50.462;4.850;2023-04-08T02:05:17;10.60;;;5.68;;
76039;SDS011;64736;50.462;4.850;2023-04-08T02:07:43;10.35;;;6.00;;
76039;SDS011;64736;50.462;4.850;2023-04-08T02:10:11;10.95;;;6.25;;
76039;SDS011;64736;50.462;4.850;2023-04-08T02:12:36;9.80;;;6.28;;
76039;SDS011;64736;50.462;4.850;2023-04-08T02:15:03;9.63;;;6.07;;
76039;SDS011;64736;50.462;4.850;2023-04-08T02:20:17;11.95;;;5.90;;
76039;SDS011;64736;50.462;4.850;2023-04-08T02:25:27;8.93;;;5.03;;
76039;SDS011;64736;50.462;4.850;2023-04-08T02:27:54;9.93;;;6.03;;
76039;SDS011;64736;50.462;4.850;2023-04-08T02:30:21;10.68;;;6.47;;
76039;SDS011;64736;50.462;4.850;2023-04-08T02:32:50;10.93;;;5.97;;
76039;SDS011;64736;50.462;4.850;2023-04-08T02:35:20;10.18;;;5.90;;
76039;SDS011;64736;50.462;4.850;2023-04-08T02:37:47;12.18;;;5.82;;
76039;SDS011;64736;50.462;4.850;2023-04-08T02:40:22;9.95;;;6.47;;
76039;SDS011;64736;50.462;4.850;2023-04-08T02:42:53;9.93;;;5.40;;
76039;SDS011;64736;50.462;4.850;2023-04-08T02:45:19;10.25;;;5.63;;
76039;SDS011;64736;50.462;4.850;2023-04-08T02:47:45;9.90;;;5.88;;
76039;SDS011;64736;50.462;4.850;2023-04-08T02:50:11;12.02;;;6.15;;
76039;SDS011;64736;50.462;4.850;2023-04-08T02:52:37;10.45;;;6.43;;
76039;SDS011;64736;50.462;4.850;2023-04-08T02:55:03;11.10;;;6.30;;
76039;SDS011;64736;50.462;4.850;2023-04-08T02:57:34;12.13;;;6.85;;
76039;SDS011;64736;50.462;4.850;2023-04-08T03:00:02;11.73;;;6.15;;
76039;SDS011;64736;50.462;4.850;2023-04-08T03:02:29;12.63;;;6.05;;
76039;SDS011;64736;50.462;4.850;2023-04-08T03:04:55;10.65;;;6.82;;
76039;SDS011;64736;50.462;4.850;2023-04-08T03:07:20;12.35;;;6.50;;
76039;SDS011;64736;50.462;4.850;2023-04-08T03:09:46;13.23;;;6.28;;
76039;SDS011;64736;50.462;4.850;2023-04-08T03:12:12;11.35;;;6.40;;
76039;SDS011;64736;50.462;4.850;2023-04-08T03:14:38;12.35;;;6.97;;
76039;SDS011;64736;50.462;4.850;2023-04-08T03:17:03;13.30;;;7.68;;
76039;SDS011;64736;50.462;4.850;2023-04-08T03:19:29;23.55;;;7.13;;
76039;SDS011;64736;50.462;4.850;2023-04-08T03:21:55;12.20;;;6.22;;
76039;SDS011;64736;50.462;4.850;2023-04-08T03:24:20;9.98;;;6.03;;
76039;SDS011;64736;50.462;4.850;2023-04-08T03:26:46;11.38;;;5.60;;
76039;SDS011;64736;50.462;4.850;2023-04-08T03:29:12;9.80;;;6.20;;
76039;SDS011;64736;50.462;4.850;2023-04-08T03:31:38;11.40;;;7.00;;
76039;SDS011;64736;50.462;4.850;2023-04-08T03:34:03;12.40;;;6.93;;
76039;SDS011;64736;50.462;4.850;2023-04-08T03:36:29;13.35;;;9.05;;
76039;SDS011;64736;50.462;4.850;2023-04-08T03:38:55;10.93;;;6.57;;
76039;SDS011;64736;50.462;4.850;2023-04-08T03:41:21;12.48;;;6.32;;
76039;SDS011;64736;50.462;4.850;2023-04-08T03:43:46;10.60;;;5.75;;
76039;SDS011;64736;50.462;4.850;2023-04-08T03:46:12;10.02;;;5.50;;
76039;SDS011;64736;50.462;4.850;2023-04-08T03:48:38;10.30;;;6.15;;
76039;SDS011;64736;50.462;4.850;2023-04-08T03:51:03;10.07;;;6.68;;
76039;SDS011;64736;50.462;4.850;2023-04-08T03:53:29;11.38;;;6.40;;
76039;SDS011;64736;50.462;4.850;2023-04-08T03:55:55;10.88;;;6.78;;
76039;SDS011;64736;50.462;4.850;2023-04-08T03:58:21;9.18;;;6.25;;
76039;SDS011;64736;50.462;4.850;2023-04-08T04:00:47;13.13;;;7.60;;
76039;SDS011;64736;50.462;4.850;2023-04-08T04:03:13;12.75;;;7.25;;
76039;SDS011;64736;50.462;4.850;2023-04-08T04:05:39;12.98;;;7.78;;
76039;SDS011;64736;50.462;4.850;2023-04-08T04:08:05;16.88;;;8.65;;
76039;SDS011;64736;50.462;4.850;2023-04-08T04:10:31;12.27;;;7.28;;
76039;SDS011;64736;50.462;4.850;2023-04-08T04:12:56;13.70;;;7.72;;
76039;SDS011;64736;50.462;4.850;2023-04-08T04:15:22;12.73;;;7.63;;
76039;SDS011;64736;50.462;4.850;2023-04-08T04:17:48;11.90;;;6.70;;
76039;SDS011;64736;50.462;4.850;2023-04-08T04:20:17;12.70;;;7.13;;
76039;SDS011;64736;50.462;4.850;2023-04-08T04:22:43;10.68;;;6.95;;
76039;SDS011;64736;50.462;4.850;2023-04-08T04:25:09;11.60;;;6.45;;
76039;SDS011;64736;50.462;4.850;2023-04-08T04:27:35;11.95;;;7.18;;
76039;SDS011;64736;50.462;4.850;2023-04-08T04:30:01;12.35;;;6.70;;
76039;SDS011;64736;50.462;4.850;2023-04-08T04:32:27;10.95;;;7.13;;
76039;SDS011;64736;50.462;4.850;2023-04-08T04:34:53;10.93;;;6.78;;
76039;SDS011;64736;50.462;4.850;2023-04-08T04:37:19;11.95;;;7.15;;
76039;SDS011;64736;50.462;4.850;2023-04-08T04:39:45;13.65;;;7.55;;
76039;SDS011;64736;50.462;4.850;2023-04-08T04:42:10;12.32;;;6.40;;
76039;SDS011;64736;50.462;4.850;2023-04-08T04:44:36;12.27;;;6.18;;
76039;SDS011;64736;50.462;4.850;2023-04-08T04:47:02;11.73;;;6.15;;
76039;SDS011;64736;50.462;4.850;2023-04-08T04:49:28;10.80;;;6.57;;
76039;SDS011;64736;50.462;4.850;2023-04-08T04:51:54;9.98;;;6.10;;
76039;SDS011;64736;50.462;4.850;2023-04-08T04:54:20;10.35;;;6.35;;
76039;SDS011;64736;50.462;4.850;2023-04-08T04:56:46;12.45;;;7.05;;
76039;SDS011;64736;50.462;4.850;2023-04-08T04:59:11;13.10;;;6.82;;
76039;SDS011;64736;50.462;4.850;2023-04-08T05:01:37;11.27;;;6.38;;
76039;SDS011;64736;50.462;4.850;2023-04-08T05:04:05;11.63;;;7.40;;
76039;SDS011;64736;50.462;4.850;2023-04-08T05:06:32;12.23;;;6.80;;
76039;SDS011;64736;50.462;4.850;2023-04-08T05:08:57;13.70;;;7.35;;
76039;SDS011;64736;50.462;4.850;2023-04-08T05:11:23;11.15;;;6.80;;
76039;SDS011;64736;50.462;4.850;2023-04-08T05:13:49;14.80;;;7.80;;
76039;SDS011;64736;50.462;4.850;2023-04-08T05:16:15;12.70;;;7.00;;
76039;SDS011;64736;50.462;4.850;2023-04-08T05:18:41;13.32;;;7.88;;
76039;SDS011;64736;50.462;4.850;2023-04-08T05:21:07;12.95;;;7.90;;
76039;SDS011;64736;50.462;4.850;2023-04-08T05:23:33;10.55;;;6.80;;
76039;SDS011;64736;50.462;4.850;2023-04-08T05:25:59;12.45;;;7.57;;
76039;SDS011;64736;50.462;4.850;2023-04-08T05:28:26;14.13;;;7.80;;
76039;SDS011;64736;50.462;4.850;2023-04-08T05:30:52;12.88;;;6.85;;
76039;SDS011;64736;50.462;4.850;2023-04-08T05:33:18;10.00;;;6.85;;
76039;SDS011;64736;50.462;4.850;2023-04-08T05:35:44;15.57;;;7.35;;
76039;SDS011;64736;50.462;4.850;2023-04-08T05:38:10;12.02;;;7.43;;
76039;SDS011;64736;50.462;4.850;2023-04-08T05:40:37;12.05;;;8.30;;
76039;SDS011;64736;50.462;4.850;2023-04-08T05:43:03;12.45;;;7.35;;
76039;SDS011;64736;50.462;4.850;2023-04-08T05:45:28;13.85;;;9.13;;
76039;SDS011;64736;50.462;4.850;2023-04-08T05:47:55;14.43;;;8.52;;
76039;SDS011;64736;50.462;4.850;2023-04-08T05:50:20;14.48;;;7.82;;
76039;SDS011;64736;50.462;4.850;2023-04-08T05:52:46;15.20;;;9.40;;
76039;SDS011;64736;50.462;4.850;2023-04-08T05:55:12;13.55;;;8.07;;
76039;SDS011;64736;50.462;4.850;2023-04-08T05:57:39;14.65;;;8.13;;
76039;SDS011;64736;50.462;4.850;2023-04-08T06:00:06;14.02;;;7.72;;
76039;SDS011;64736;50.462;4.850;2023-04-08T06:02:33;13.45;;;7.45;;
76039;SDS011;64736;50.462;4.850;2023-04-08T06:05:00;16.65;;;8.40;;
76039;SDS011;64736;50.462;4.850;2023-04-08T06:07:27;16.35;;;8.55;;
76039;SDS011;64736;50.462;4.850;2023-04-08T06:09:52;15.30;;;8.15;;
76039;SDS011;64736;50.462;4.850;2023-04-08T06:12:18;17.02;;;8.65;;
76039;SDS011;64736;50.462;4.850;2023-04-08T06:14:44;14.25;;;7.85;;
76039;SDS011;64736;50.462;4.850;2023-04-08T06:17:10;14.30;;;8.63;;
76039;SDS011;64736;50.462;4.850;2023-04-08T06:19:36;14.10;;;7.78;;
76039;SDS011;64736;50.462;4.850;2023-04-08T06:22:01;16.25;;;8.65;;
76039;SDS011;64736;50.462;4.850;2023-04-08T06:24:27;17.17;;;8.23;;
76039;SDS011;64736;50.462;4.850;2023-04-08T06:26:53;17.65;;;8.18;;
76039;SDS011;64736;50.462;4.850;2023-04-08T06:29:20;16.45;;;8.27;;
76039;SDS011;64736;50.462;4.850;2023-04-08T06:31:47;14.15;;;8.15;;
76039;SDS011;64736;50.462;4.850;2023-04-08T06:34:13;15.98;;;8.63;;
76039;SDS011;64736;50.462;4.850;2023-04-08T06:36:39;15.35;;;8.25;;
76039;SDS011;64736;50.462;4.850;2023-04-08T06:39:05;17.17;;;8.20;;
76039;SDS011;64736;50.462;4.850;2023-04-08T06:41:31;12.60;;;8.60;;
76039;SDS011;64736;50.462;4.850;2023-04-08T06:43:57;12.88;;;7.65;;
76039;SDS011;64736;50.462;4.850;2023-04-08T06:46:23;17.90;;;7.80;;
76039;SDS011;64736;50.462;4.850;2023-04-08T06:48:49;15.07;;;8.75;;
76039;SDS011;64736;50.462;4.850;2023-04-08T06:51:14;15.82;;;8.93;;
76039;SDS011;64736;50.462;4.850;2023-04-08T06:53:40;15.52;;;8.30;;
76039;SDS011;64736;50.462;4.850;2023-04-08T06:56:06;13.30;;;8.15;;
76039;SDS011;64736;50.462;4.850;2023-04-08T06:58:31;16.15;;;8.52;;
76039;SDS011;64736;50.462;4.850;2023-04-08T07:00:58;13.30;;;8.02;;
76039;SDS011;64736;50.462;4.850;2023-04-08T07:03:24;14.43;;;8.15;;
76039;SDS011;64736;50.462;4.850;2023-04-08T07:05:51;15.70;;;8.43;;
76039;SDS011;64736;50.462;4.850;2023-04-08T07:08:17;13.73;;;8.65;;
76039;SDS011;64736;50.462;4.850;2023-04-08T07:10:43;13.35;;;7.57;;
76039;SDS011;64736;50.462;4.850;2023-04-08T07:13:09;17.00;;;8.30;;
76039;SDS011;64736;50.462;4.850;2023-04-08T07:15:35;15.25;;;7.88;;
76039;SDS011;64736;50.462;4.850;2023-04-08T07:18:01;16.42;;;9.27;;
76039;SDS011;64736;50.462;4.850;2023-04-08T07:20:28;14.35;;;8.00;;
76039;SDS011;64736;50.462;4.850;2023-04-08T07:22:55;14.05;;;7.53;;
76039;SDS011;64736;50.462;4.850;2023-04-08T07:25:20;14.27;;;7.93;;
76039;SDS011;64736;50.462;4.850;2023-04-08T07:27:46;15.07;;;8.48;;
76039;SDS011;64736;50.462;4.850;2023-04-08T07:30:12;17.20;;;8.70;;
76039;SDS011;64736;50.462;4.850;2023-04-08T07:32:38;22.05;;;8.45;;
76039;SDS011;64736;50.462;4.850;2023-04-08T07:35:04;15.38;;;8.23;;
76039;SDS011;64736;50.462;4.850;2023-04-08T07:37:30;20.20;;;9.63;;
76039;SDS011;64736;50.462;4.850;2023-04-08T07:39:56;14.80;;;7.97;;
76039;SDS011;64736;50.462;4.850;2023-04-08T07:42:21;14.90;;;8.23;;
76039;SDS011;64736;50.462;4.850;2023-04-08T07:44:47;15.55;;;8.80;;
76039;SDS011;64736;50.462;4.850;2023-04-08T07:47:13;18.27;;;9.52;;
76039;SDS011;64736;50.462;4.850;2023-04-08T07:49:38;17.65;;;9.60;;
76039;SDS011;64736;50.462;4.850;2023-04-08T07:52:04;16.63;;;8.57;;
76039;SDS011;64736;50.462;4.850;2023-04-08T07:54:31;17.85;;;9.38;;
76039;SDS011;64736;50.462;4.850;2023-04-08T07:56:58;16.05;;;8.85;;
76039;SDS011;64736;50.462;4.850;2023-04-08T07:59:24;17.90;;;8.95;;
76039;SDS011;64736;50.462;4.850;2023-04-08T08:01:50;16.50;;;9.27;;
76039;SDS011;64736;50.462;4.850;2023-04-08T08:04:15;17.00;;;9.90;;
76039;SDS011;64736;50.462;4.850;2023-04-08T08:06:42;21.42;;;10.35;;
76039;SDS011;64736;50.462;4.850;2023-04-08T08:09:07;21.45;;;10.85;;
76039;SDS011;64736;50.462;4.850;2023-04-08T08:11:33;17.52;;;9.52;;
76039;SDS011;64736;50.462;4.850;2023-04-08T08:13:59;23.50;;;10.77;;
76039;SDS011;64736;50.462;4.850;2023-04-08T08:16:29;18.98;;;10.13;;
76039;SDS011;64736;50.462;4.850;2023-04-08T08:18:58;18.10;;;9.88;;
76039;SDS011;64736;50.462;4.850;2023-04-08T08:21:24;19.30;;;10.27;;
76039;SDS011;64736;50.462;4.850;2023-04-08T08:23:51;16.73;;;10.82;;
76039;SDS011;64736;50.462;4.850;2023-04-08T08:26:18;18.90;;;10.70;;
76039;SDS011;64736;50.462;4.850;2023-04-08T08:28:44;16.50;;;9.52;;
76039;SDS011;64736;50.462;4.850;2023-04-08T08:31:09;20.63;;;10.38;;
76039;SDS011;64736;50.462;4.850;2023-04-08T08:33:36;28.05;;;18.58;;
76039;SDS011;64736;50.462;4.850;2023-04-08T08:36:01;20.55;;;11.40;;
76039;SDS011;64736;50.462;4.850;2023-04-08T08:38:29;21.48;;;11.13;;
76039;SDS011;64736;50.462;4.850;2023-04-08T08:40:58;20.65;;;10.55;;
76039;SDS011;64736;50.462;4.850;2023-04-08T08:45:51;19.77;;;10.32;;
76039;SDS011;64736;50.462;4.850;2023-04-08T08:48:17;18.90;;;10.77;;
76039;SDS011;64736;50.462;4.850;2023-04-08T08:50:43;17.75;;;10.32;;
76039;SDS011;64736;50.462;4.850;2023-04-08T08:53:09;17.20;;;10.45;;
76039;SDS011;64736;50.462;4.850;2023-04-08T08:55:35;19.70;;;10.77;;
76039;SDS011;64736;50.462;4.850;2023-04-08T08:58:04;15.88;;;9.88;;
76039;SDS011;64736;50.462;4.850;2023-04-08T09:00:38;20.52;;;10.57;;
76039;SDS011;64736;50.462;4.850;2023-04-08T09:03:27;19.35;;;9.80;;
76039;SDS011;64736;50.462;4.850;2023-04-08T09:05:56;17.67;;;9.13;;
76039;SDS011;64736;50.462;4.850;2023-04-08T09:08:35;17.75;;;9.32;;
76039;SDS011;64736;50.462;4.850;2023-04-08T09:11:12;15.98;;;9.98;;
76039;SDS011;64736;50.462;4.850;2023-04-08T09:13:40;18.98;;;9.32;;
76039;SDS011;64736;50.462;4.850;2023-04-08T09:16:09;17.58;;;9.23;;
76039;SDS011;64736;50.462;4.850;2023-04-08T09:18:37;16.23;;;9.40;;
76039;SDS011;64736;50.462;4.850;2023-04-08T09:21:03;16.67;;;10.75;;
76039;SDS011;64736;50.462;4.850;2023-04-08T09:26:20;22.52;;;11.07;;
76039;SDS011;64736;50.462;4.850;2023-04-08T09:31:28;17.95;;;10.52;;
76039;SDS011;64736;50.462;4.850;2023-04-08T09:33:58;16.25;;;9.50;;
76039;SDS011;64736;50.462;4.850;2023-04-08T09:38:53;12.25;;;6.38;;
76039;SDS011;64736;50.462;4.850;2023-04-08T09:41:19;15.70;;;8.55;;
76039;SDS011;64736;50.462;4.850;2023-04-08T09:43:52;14.75;;;8.45;;
76039;SDS011;64736;50.462;4.850;2023-04-08T09:46:25;15.35;;;8.20;;
76039;SDS011;64736;50.462;4.850;2023-04-08T09:49:08;15.57;;;8.63;;
76039;SDS011;64736;50.462;4.850;2023-04-08T09:54:51;14.02;;;7.55;;
76039;SDS011;64736;50.462;4.850;2023-04-08T10:00:21;15.93;;;10.00;;
76039;SDS011;64736;50.462;4.850;2023-04-08T10:02:55;14.25;;;8.90;;
76039;SDS011;64736;50.462;4.850;2023-04-08T10:05:25;14.77;;;7.82;;
76039;SDS011;64736;50.462;4.850;2023-04-08T10:07:52;13.85;;;8.30;;
76039;SDS011;64736;50.462;4.850;2023-04-08T10:10:21;16.33;;;8.50;;
76039;SDS011;64736;50.462;4.850;2023-04-08T10:12:47;15.65;;;8.98;;
76039;SDS011;64736;50.462;4.850;2023-04-08T10:15:27;16.20;;;8.60;;
76039;SDS011;64736;50.462;4.850;2023-04-08T10:25:36;15.35;;;8.50;;
76039;SDS011;64736;50.462;4.850;2023-04-08T10:33:21;15.30;;;8.60;;
76039;SDS011;64736;50.462;4.850;2023-04-08T10:38:33;17.05;;;9.65;;
76039;SDS011;64736;50.462;4.850;2023-04-08T10:40:59;15.15;;;8.15;;
76039;SDS011;64736;50.462;4.850;2023-04-08T10:43:27;15.07;;;8.95;;
76039;SDS011;64736;50.462;4.850;2023-04-08T10:45:57;14.45;;;9.05;;
76039;SDS011;64736;50.462;4.850;2023-04-08T10:48:24;14.63;;;8.43;;
76039;SDS011;64736;50.462;4.850;2023-04-08T10:50:57;15.52;;;9.30;;
76039;SDS011;64736;50.462;4.850;2023-04-08T10:53:27;15.35;;;8.32;;
76039;SDS011;64736;50.462;4.850;2023-04-08T10:58:34;16.40;;;8.52;;
76039;SDS011;64736;50.462;4.850;2023-04-08T11:01:07;14.38;;;9.23;;
76039;SDS011;64736;50.462;4.850;2023-04-08T11:03:33;14.60;;;7.97;;
76039;SDS011;64736;50.462;4.850;2023-04-08T11:06:01;14.25;;;8.68;;
76039;SDS011;64736;50.462;4.850;2023-04-08T11:08:31;13.52;;;8.18;;
76039;SDS011;64736;50.462;4.850;2023-04-08T11:10:58;13.20;;;8.43;;
76039;SDS011;64736;50.462;4.850;2023-04-08T11:13:28;16.35;;;9.35;;
76039;SDS011;64736;50.462;4.850;2023-04-08T11:15:55;15.95;;;9.30;;
76039;SDS011;64736;50.462;4.850;2023-04-08T11:18:22;14.98;;;9.02;;
76039;SDS011;64736;50.462;4.850;2023-04-08T11:20:49;16.02;;;9.48;;
76039;SDS011;64736;50.462;4.850;2023-04-08T11:23:16;14.50;;;9.43;;
76039;SDS011;64736;50.462;4.850;2023-04-08T11:25:42;15.38;;;9.07;;
76039;SDS011;64736;50.462;4.850;2023-04-08T11:28:10;15.43;;;8.57;;
76039;SDS011;64736;50.462;4.850;2023-04-08T11:30:37;16.73;;;9.13;;
76039;SDS011;64736;50.462;4.850;2023-04-08T11:33:05;14.20;;;8.30;;
76039;SDS011;64736;50.462;4.850;2023-04-08T11:35:38;16.52;;;9.00;;
76039;SDS011;64736;50.462;4.850;2023-04-08T11:38:05;17.70;;;9.15;;
76039;SDS011;64736;50.462;4.850;2023-04-08T11:40:32;16.77;;;9.25;;
76039;SDS011;64736;50.462;4.850;2023-04-08T11:42:58;16.23;;;8.63;;
76039;SDS011;64736;50.462;4.850;2023-04-08T11:45:24;13.85;;;8.50;;
76039;SDS011;64736;50.462;4.850;2023-04-08T11:47:49;17.55;;;9.15;;
76039;SDS011;64736;50.462;4.850;2023-04-08T11:50:22;16.38;;;8.73;;
76039;SDS011;64736;50.462;4.850;2023-04-08T11:52:49;18.23;;;9.30;;
76039;SDS011;64736;50.462;4.850;2023-04-08T11:55:25;13.88;;;8.68;;
76039;SDS011;64736;50.462;4.850;2023-04-08T11:57:56;14.30;;;9.40;;
76039;SDS011;64736;50.462;4.850;2023-04-08T12:00:27;16.52;;;9.18;;
76039;SDS011;64736;50.462;4.850;2023-04-08T12:02:53;16.02;;;9.55;;
76039;SDS011;64736;50.462;4.850;2023-04-08T12:05:19;15.90;;;9.70;;
76039;SDS011;64736;50.462;4.850;2023-04-08T12:07:45;15.98;;;9.18;;
76039;SDS011;64736;50.462;4.850;2023-04-08T12:10:12;15.65;;;9.68;;
76039;SDS011;64736;50.462;4.850;2023-04-08T12:12:38;15.43;;;8.82;;
76039;SDS011;64736;50.462;4.850;2023-04-08T12:15:04;19.48;;;9.52;;
76039;SDS011;64736;50.462;4.850;2023-04-08T12:17:32;17.85;;;11.10;;
76039;SDS011;64736;50.462;4.850;2023-04-08T12:19:57;16.35;;;10.00;;
76039;SDS011;64736;50.462;4.850;2023-04-08T12:22:23;15.70;;;9.27;;
76039;SDS011;64736;50.462;4.850;2023-04-08T12:24:49;13.93;;;9.43;;
76039;SDS011;64736;50.462;4.850;2023-04-08T12:27:14;14.10;;;9.02;;
76039;SDS011;64736;50.462;4.850;2023-04-08T12:29:40;14.57;;;9.40;;
76039;SDS011;64736;50.462;4.850;2023-04-08T12:32:06;15.43;;;9.63;;
76039;SDS011;64736;50.462;4.850;2023-04-08T12:34:32;15.52;;;9.13;;
76039;SDS011;64736;50.462;4.850;2023-04-08T12:36:57;15.55;;;8.90;;
76039;SDS011;64736;50.462;4.850;2023-04-08T12:39:23;17.00;;;11.02;;
76039;SDS011;64736;50.462;4.850;2023-04-08T12:41:49;16.23;;;9.45;;
76039;SDS011;64736;50.462;4.850;2023-04-08T12:44:15;14.98;;;9.13;;
76039;SDS011;64736;50.462;4.850;2023-04-08T12:46:41;17.90;;;10.23;;
76039;SDS011;64736;50.462;4.850;2023-04-08T12:49:07;17.67;;;10.73;;
76039;SDS011;64736;50.462;4.850;2023-04-08T12:51:34;13.50;;;8.63;;
76039;SDS011;64736;50.462;4.850;2023-04-08T12:54:03;14.73;;;9.93;;
76039;SDS011;64736;50.462;4.850;2023-04-08T12:56:30;13.98;;;8.90;;
76039;SDS011;64736;50.462;4.850;2023-04-08T12:58:56;14.95;;;8.65;;
76039;SDS011;64736;50.462;4.850;2023-04-08T13:01:23;15.25;;;9.43;;
76039;SDS011;64736;50.462;4.850;2023-04-08T13:03:49;14.60;;;9.60;;
76039;SDS011;64736;50.462;4.850;2023-04-08T13:06:15;14.38;;;9.52;;
76039;SDS011;64736;50.462;4.850;2023-04-08T13:08:40;14.93;;;9.65;;
76039;SDS011;64736;50.462;4.850;2023-04-08T13:11:07;15.90;;;10.38;;
76039;SDS011;64736;50.462;4.850;2023-04-08T13:13:33;18.48;;;10.48;;
76039;SDS011;64736;50.462;4.850;2023-04-08T13:15:59;14.40;;;9.57;;
76039;SDS011;64736;50.462;4.850;2023-04-08T13:18:25;17.80;;;10.35;;
76039;SDS011;64736;50.462;4.850;2023-04-08T13:20:51;14.93;;;10.77;;
76039;SDS011;64736;50.462;4.850;2023-04-08T13:23:18;13.02;;;8.63;;
76039;SDS011;64736;50.462;4.850;2023-04-08T13:25:45;15.55;;;10.27;;
76039;SDS011;64736;50.462;4.850;2023-04-08T13:28:11;13.73;;;9.10;;
76039;SDS011;64736;50.462;4.850;2023-04-08T13:30:37;14.40;;;8.93;;
76039;SDS011;64736;50.462;4.850;2023-04-08T13:33:03;12.95;;;9.10;;
76039;SDS011;64736;50.462;4.850;2023-04-08T13:35:28;14.18;;;9.38;;
76039;SDS011;64736;50.462;4.850;2023-04-08T13:37:54;13.68;;;8.70;;
76039;SDS011;64736;50.462;4.850;2023-04-08T13:40:20;16.10;;;10.43;;
76039;SDS011;64736;50.462;4.850;2023-04-08T13:42:46;17.05;;;10.02;;
76039;SDS011;64736;50.462;4.850;2023-04-08T13:45:12;15.95;;;10.40;;
76039;SDS011;64736;50.462;4.850;2023-04-08T13:47:38;15.50;;;9.52;;
76039;SDS011;64736;50.462;4.850;2023-04-08T13:50:07;16.17;;;9.40;;
76039;SDS011;64736;50.462;4.850;2023-04-08T13:52:33;15.77;;;9.88;;
76039;SDS011;64736;50.462;4.850;2023-04-08T13:54:59;15.15;;;10.02;;
76039;SDS011;64736;50.462;4.850;2023-04-08T13:57:25;15.77;;;10.93;;
76039;SDS011;64736;50.462;4.850;2023-04-08T13:59:51;16.05;;;10.60;;
76039;SDS011;64736;50.462;4.850;2023-04-08T14:02:16;13.77;;;10.25;;
76039;SDS011;64736;50.462;4.850;2023-04-08T14:04:42;14.05;;;9.98;;
76039;SDS011;64736;50.462;4.850;2023-04-08T14:07:12;14.85;;;10.77;;
76039;SDS011;64736;50.462;4.850;2023-04-08T14:09:38;16.38;;;11.50;;
76039;SDS011;64736;50.462;4.850;2023-04-08T14:12:03;16.00;;;10.52;;
76039;SDS011;64736;50.462;4.850;2023-04-08T14:14:29;16.17;;;10.95;;
76039;SDS011;64736;50.462;4.850;2023-04-08T14:16:55;17.33;;;11.73;;
76039;SDS011;64736;50.462;4.850;2023-04-08T14:19:21;15.23;;;9.88;;
76039;SDS011;64736;50.462;4.850;2023-04-08T14:21:47;15.63;;;10.85;;
76039;SDS011;64736;50.462;4.850;2023-04-08T14:24:12;16.17;;;10.68;;
76039;SDS011;64736;50.462;4.850;2023-04-08T14:26:38;16.83;;;11.35;;
76039;SDS011;64736;50.462;4.850;2023-04-08T14:29:05;14.63;;;10.98;;
76039;SDS011;64736;50.462;4.850;2023-04-08T14:31:31;15.95;;;10.80;;
76039;SDS011;64736;50.462;4.850;2023-04-08T14:33:58;16.10;;;11.05;;
76039;SDS011;64736;50.462;4.850;2023-04-08T14:36:25;16.25;;;11.38;;
76039;SDS011;64736;50.462;4.850;2023-04-08T14:38:52;16.73;;;10.57;;
76039;SDS011;64736;50.462;4.850;2023-04-08T14:41:18;17.42;;;11.65;;
76039;SDS011;64736;50.462;4.850;2023-04-08T14:43:44;15.57;;;11.02;;
76039;SDS011;64736;50.462;4.850;2023-04-08T14:46:09;16.83;;;11.52;;
76039;SDS011;64736;50.462;4.850;2023-04-08T14:48:35;16.15;;;11.60;;
76039;SDS011;64736;50.462;4.850;2023-04-08T14:51:01;15.95;;;11.57;;
76039;SDS011;64736;50.462;4.850;2023-04-08T14:53:26;13.07;;;10.23;;
76039;SDS011;64736;50.462;4.850;2023-04-08T14:55:52;15.52;;;10.13;;
76039;SDS011;64736;50.462;4.850;2023-04-08T14:58:18;15.52;;;10.38;;
76039;SDS011;64736;50.462;4.850;2023-04-08T15:00:44;17.33;;;11.38;;
76039;SDS011;64736;50.462;4.850;2023-04-08T15:03:12;17.08;;;12.13;;
76039;SDS011;64736;50.462;4.850;2023-04-08T15:05:42;15.77;;;11.02;;
76039;SDS011;64736;50.462;4.850;2023-04-08T15:08:07;16.63;;;11.32;;
76039;SDS011;64736;50.462;4.850;2023-04-08T15:10:33;14.73;;;10.55;;
76039;SDS011;64736;50.462;4.850;2023-04-08T15:12:59;15.80;;;11.02;;
76039;SDS011;64736;50.462;4.850;2023-04-08T15:15:25;14.63;;;11.60;;
76039;SDS011;64736;50.462;4.850;2023-04-08T15:17:51;14.48;;;10.23;;
76039;SDS011;64736;50.462;4.850;2023-04-08T15:20:17;18.02;;;12.07;;